| time (UTC) | temp F | wind direction | speed knots | gust knots | rain 1hr in | rain 24hr in | rain mn in | humidity % | barometer mb |
| 20260508071238 | 50 | 260 | 4.3 | 0.0 | 0.00 | 0.00 | 0.00 | 18 | 1009.0 |
| 20260508070237 | 51 | 260 | 4.3 | 0.0 | 0.00 | 0.00 | 0.00 | 18 | 1009.0 |
| 20260508065236 | 52 | 260 | 4.3 | 0.0 | 0.00 | 0.00 | 0.00 | 18 | 1009.0 |
| 20260508064235 | 52 | 110 | 2.6 | 0.0 | 0.00 | 0.00 | 0.00 | 18 | 1009.0 |
| 20260508063235 | 53 | 110 | 2.6 | 0.0 | 0.00 | 0.00 | 0.00 | 18 | 1009.0 |
| 20260508062232 | 52 | 110 | 2.6 | 0.0 | 0.00 | 0.00 | 0.00 | 18 | 1008.0 |
| 20260508061231 | 52 | 110 | 2.6 | 0.0 | 0.00 | 0.00 | 0.00 | 18 | 1008.0 |
| 20260508060231 | 52 | 110 | 2.6 | 0.0 | 0.00 | 0.00 | 0.00 | 18 | 1008.0 |
| 20260508054018 | 52 | 90 | 2.6 | 0.0 | 0.00 | 0.00 | 0.00 | 18 | 1008.0 |
| 20260508053017 | 53 | 90 | 2.6 | 0.0 | 0.00 | 0.00 | 0.00 | 18 | 1008.0 |
| 20260508052016 | 44 | 90 | 2.6 | 0.0 | 0.00 | 0.00 | 0.00 | 87 | 1008.0 |
| 20260508045804 | 45 | 80 | 2.6 | 0.0 | 0.00 | 0.00 | 0.00 | 87 | 1008.0 |
| 20260508044802 | 46 | 80 | 2.6 | 0.0 | 0.00 | 0.00 | 0.00 | 87 | 1008.0 |
| 20260508043802 | 47 | 80 | 2.6 | 0.0 | 0.00 | 0.00 | 0.00 | 87 | 1008.0 |
| 20260508042800 | 43 | 80 | 2.6 | 0.0 | 0.00 | 0.00 | 0.00 | 87 | 1008.0 |
| 20260508041759 | 44 | 80 | 2.6 | 0.0 | 0.00 | 0.00 | 0.00 | 87 | 1008.0 |
| 20260508040758 | 45 | 230 | 1.7 | 0.0 | 0.00 | 0.00 | 0.00 | 87 | 1008.0 |
| 20260508035757 | 46 | 230 | 1.7 | 0.0 | 0.00 | 0.00 | 0.00 | 87 | 1008.0 |
| 20260508034756 | 47 | 230 | 1.7 | 0.0 | 0.00 | 0.00 | 0.00 | 87 | 1008.0 |
| 20260508033754 | 43 | 260 | 0.9 | 0.0 | 0.00 | 0.00 | 0.00 | 93 | 1008.0 |
| 20260508032753 | 44 | 260 | 0.9 | 0.0 | 0.00 | 0.00 | 0.00 | 93 | 1008.0 |
| 20260508030540 | 45 | 260 | 1.7 | 0.0 | 0.00 | 0.00 | 0.00 | 93 | 1008.0 |
| 20260508025538 | 46 | 260 | 1.7 | 0.0 | 0.00 | 0.00 | 0.00 | 93 | 1008.0 |
| 20260508024537 | 42 | 260 | 1.7 | 0.0 | 0.00 | 0.00 | 0.00 | 93 | 1008.0 |
| 20260508023537 | 43 | 250 | 0.9 | 0.0 | 0.00 | 0.00 | 0.00 | 93 | 1008.0 |
| 20260508022536 | 44 | 250 | 0.9 | 0.0 | 0.00 | 0.00 | 0.00 | 93 | 1008.0 |
| 20260508021535 | 42 | 0 | 1.7 | 0.0 | 0.00 | 0.00 | 0.00 | 87 | 1008.0 |
| 20260508020534 | 43 | 0 | 1.7 | 0.0 | 0.00 | 0.00 | 0.00 | 87 | 1008.0 |
| 20260508015533 | 44 | 0 | 1.7 | 0.0 | 0.00 | 0.00 | 0.00 | 87 | 1008.0 |
| 20260508014532 | 45 | 0 | 1.7 | 0.0 | 0.00 | 0.00 | 0.00 | 87 | 1009.0 |
| 20260508013532 | 46 | 0 | 1.7 | 0.0 | 0.00 | 0.00 | 0.00 | 87 | 1008.0 |
| 20260508012531 | 47 | 0 | 1.7 | 0.0 | 0.00 | 0.00 | 0.00 | 87 | 1009.0 |
| 20260508010320 | 43 | 120 | 5.2 | 0.0 | 0.00 | 0.00 | 0.00 | 81 | 1009.0 |
| 20260508004106 | 44 | 130 | 3.5 | 0.0 | 0.00 | 0.00 | 0.00 | 81 | 1009.0 |
| 20260508003106 | 45 | 130 | 3.5 | 0.0 | 0.00 | 0.00 | 0.00 | 81 | 1010.0 |
| 20260508002105 | 46 | 130 | 3.5 | 0.0 | 0.00 | 0.00 | 0.00 | 81 | 1010.0 |
| 20260508001104 | 47 | 140 | 1.7 | 0.0 | 0.00 | 0.00 | 0.00 | 81 | 1010.0 |
| 20260507235102 | 45 | 160 | 3.5 | 0.0 | 0.00 | 0.00 | 0.00 | 81 | 1010.0 |
| 20260507234101 | 46 | 160 | 3.5 | 0.0 | 0.00 | 0.00 | 0.00 | 81 | 1010.0 |
| 20260507233059 | 47 | 160 | 3.5 | 0.0 | 0.00 | 0.00 | 0.00 | 81 | 1010.0 |
| 20260507232057 | 48 | 160 | 3.5 | 0.0 | 0.00 | 0.00 | 0.00 | 81 | 1010.0 |
| 20260507231056 | 49 | 0 | 0.9 | 0.0 | 0.00 | 0.00 | 0.00 | 81 | 1010.0 |
| 20260507230054 | 45 | 110 | 4.3 | 0.0 | 0.00 | 0.00 | 0.00 | 76 | 1010.0 |
| 20260507225052 | 46 | 110 | 4.3 | 0.0 | 0.00 | 0.00 | 0.00 | 76 | 1010.0 |
| 20260507224051 | 47 | 110 | 4.3 | 0.0 | 0.00 | 0.00 | 0.00 | 76 | 1010.0 |
| 20260507223050 | 48 | 110 | 4.3 | 0.0 | 0.00 | 0.00 | 0.00 | 76 | 1010.0 |
| 20260507220839 | 49 | 110 | 4.3 | 0.0 | 0.00 | 0.00 | 0.00 | 76 | 1010.0 |
| 20260507214625 | 50 | 110 | 4.3 | 0.0 | 0.00 | 0.00 | 0.00 | 76 | 1010.0 |
| 20260507213624 | 51 | 110 | 3.5 | 0.0 | 0.00 | 0.00 | 0.00 | 76 | 1010.0 |
| 20260507212623 | 48 | 110 | 3.5 | 0.0 | 0.00 | 0.00 | 0.00 | 76 | 1010.0 |
| 20260507211621 | 49 | 110 | 3.5 | 0.0 | 0.00 | 0.00 | 0.00 | 76 | 1010.0 |
| 20260507210620 | 50 | 100 | 3.5 | 0.0 | 0.00 | 0.00 | 0.00 | 76 | 1010.0 |
| 20260507205619 | 51 | 100 | 3.5 | 0.0 | 0.00 | 0.00 | 0.00 | 76 | 1010.0 |
| 20260507204618 | 48 | 50 | 7.0 | 0.0 | 0.00 | 0.00 | 0.00 | 10 | 1010.0 |
| 20260507203616 | 49 | 50 | 7.0 | 0.0 | 0.00 | 0.00 | 0.00 | 10 | 1010.0 |
| 20260507202615 | 50 | 50 | 7.0 | 0.0 | 0.00 | 0.00 | 0.00 | 10 | 1009.0 |
| 20260507201614 | 51 | 50 | 7.0 | 0.0 | 0.00 | 0.00 | 0.00 | 10 | 1009.0 |
| 20260507200612 | 52 | 50 | 7.0 | 0.0 | 0.00 | 0.00 | 0.00 | 10 | 1009.0 |
| 20260507194359 | 53 | 50 | 7.0 | 0.0 | 0.00 | 0.00 | 0.00 | 10 | 1009.0 |
| 20260507193357 | 54 | 50 | 7.0 | 0.0 | 0.00 | 0.00 | 0.00 | 10 | 1009.0 |
| 20260507191142 | 55 | 50 | 7.8 | 0.0 | 0.00 | 0.00 | 0.00 | 10 | 1008.0 |
| 20260507190139 | 56 | 50 | 7.8 | 0.0 | 0.00 | 0.00 | 0.00 | 10 | 1008.0 |
| 20260507185138 | 57 | 50 | 7.8 | 0.0 | 0.00 | 0.00 | 0.00 | 10 | 1008.0 |
| 20260507184136 | 58 | 0 | 0.9 | 0.0 | 0.00 | 0.00 | 0.00 | 10 | 1008.0 |
| 20260507183135 | 59 | 0 | 0.9 | 0.0 | 0.00 | 0.00 | 0.00 | 10 | 1008.0 |
| 20260507182134 | 60 | 0 | 0.9 | 0.0 | 0.00 | 0.00 | 0.00 | 10 | 1007.0 |
| 20260507181134 | 61 | 0 | 0.9 | 0.0 | 0.00 | 0.00 | 0.00 | 10 | 1007.0 |
| 20260507180133 | 62 | 0 | 0.9 | 0.0 | 0.00 | 0.00 | 0.00 | 10 | 1007.0 |
| 20260507175132 | 63 | 0 | 0.9 | 0.0 | 0.00 | 0.00 | 0.00 | 10 | 1007.0 |
| 20260507174131 | 63 | 0 | 0.9 | 0.0 | 0.00 | 0.00 | 0.00 | 10 | 1007.0 |
| 20260507173130 | 63 | 0 | 0.9 | 0.0 | 0.00 | 0.00 | 0.00 | 10 | 1007.0 |
| 20260507172130 | 64 | 0 | 0.9 | 0.0 | 0.00 | 0.00 | 0.00 | 10 | 1007.0 |
| 20260507171128 | 57 | 310 | 9.6 | 0.0 | 0.00 | 0.00 | 0.00 | 11 | 1007.0 |
| 20260507170127 | 58 | 310 | 9.6 | 0.0 | 0.00 | 0.00 | 0.00 | 11 | 1007.0 |
| 20260507165125 | 59 | 310 | 9.6 | 0.0 | 0.00 | 0.00 | 0.00 | 11 | 1007.0 |
| 20260507162908 | 60 | 310 | 9.6 | 0.0 | 0.00 | 0.00 | 0.00 | 11 | 1007.0 |
| 20260507161908 | 61 | 310 | 9.6 | 0.0 | 0.00 | 0.00 | 0.00 | 11 | 1007.0 |
| 20260507155657 | 62 | 310 | 9.6 | 0.0 | 0.00 | 0.00 | 0.00 | 11 | 1007.0 |
| 20260507154656 | 60 | 310 | 9.6 | 0.0 | 0.00 | 0.00 | 0.00 | 12 | 1007.0 |
| 20260507153653 | 60 | 310 | 9.6 | 0.0 | 0.00 | 0.00 | 0.00 | 12 | 1007.0 |
| 20260507151438 | 60 | 310 | 9.6 | 0.0 | 0.00 | 0.00 | 0.00 | 12 | 1008.0 |
| 20260507150437 | 60 | 310 | 9.6 | 0.0 | 0.00 | 0.00 | 0.00 | 12 | 1008.0 |
| 20260507145435 | 60 | 310 | 9.6 | 0.0 | 0.00 | 0.00 | 0.00 | 12 | 1008.0 |
| 20260507144434 | 60 | 310 | 9.6 | 0.0 | 0.00 | 0.00 | 0.00 | 12 | 1008.0 |
| 20260507143432 | 60 | 310 | 9.6 | 0.0 | 0.00 | 0.00 | 0.00 | 12 | 1008.0 |
| 20260507142431 | 60 | 310 | 9.6 | 0.0 | 0.00 | 0.00 | 0.00 | 12 | 1008.0 |
| 20260507140218 | 60 | 310 | 9.6 | 0.0 | 0.00 | 0.00 | 0.00 | 12 | 1008.0 |
| 20260507135218 | 60 | 310 | 9.6 | 0.0 | 0.00 | 0.00 | 0.00 | 12 | 1008.0 |
| 20260507133005 | 60 | 310 | 9.6 | 0.0 | 0.00 | 0.00 | 0.00 | 12 | 1008.0 |
| 20260507132004 | 60 | 310 | 9.6 | 0.0 | 0.00 | 0.00 | 0.00 | 12 | 1009.0 |
| 20260507131003 | 60 | 310 | 9.6 | 0.0 | 0.00 | 0.00 | 0.00 | 12 | 1009.0 |
| 20260507124751 | 60 | 330 | 9.6 | 0.0 | 0.00 | 0.00 | 0.00 | 12 | 1009.0 |
| 20260507122536 | 60 | 330 | 10.4 | 0.0 | 0.00 | 0.00 | 0.00 | 12 | 1009.0 |
| 20260507115110 | 60 | 310 | 10.4 | 0.0 | 0.00 | 0.00 | 0.00 | 12 | 1009.0 |
| 20260507114109 | 59 | 0 | 0.0 | 0.0 | 0.00 | 0.00 | 0.00 | 12 | 1009.0 |
| 20260507113107 | 59 | 0 | 0.0 | 0.0 | 0.00 | 0.00 | 0.00 | 12 | 1009.0 |
| 20260507112106 | 58 | 0 | 0.0 | 0.0 | 0.00 | 0.00 | 0.00 | 12 | 1010.0 |
| 20260507111104 | 59 | 0 | 0.0 | 0.0 | 0.00 | 0.00 | 0.00 | 12 | 1010.0 |
| 20260507100001 | 59 | 90 | 2.6 | 0.0 | 0.00 | 0.00 | 0.00 | 12 | 1010.0 |
| 20260507095000 | 58 | 90 | 2.6 | 0.0 | 0.00 | 0.00 | 0.00 | 12 | 1010.0 |
| 20260507093959 | 57 | 90 | 2.6 | 0.0 | 0.00 | 0.00 | 0.00 | 12 | 1010.0 |
| 20260507092958 | 56 | 90 | 2.6 | 0.0 | 0.00 | 0.00 | 0.00 | 12 | 1010.0 |
| 20260507091956 | 55 | 90 | 2.6 | 0.0 | 0.00 | 0.00 | 0.00 | 12 | 1010.0 |
| 20260507090955 | 54 | 90 | 2.6 | 0.0 | 0.00 | 0.00 | 0.00 | 12 | 1010.0 |
| 20260507084742 | 54 | 90 | 2.6 | 0.0 | 0.00 | 0.00 | 0.00 | 12 | 1010.0 |
| 20260507083741 | 54 | 90 | 2.6 | 0.0 | 0.00 | 0.00 | 0.00 | 12 | 1010.0 |
| 20260507082740 | 54 | 90 | 2.6 | 0.0 | 0.00 | 0.00 | 0.00 | 12 | 1010.0 |
| 20260507081738 | 54 | 90 | 2.6 | 0.0 | 0.00 | 0.00 | 0.00 | 12 | 1010.0 |
| 20260507080737 | 54 | 128 | 2.6 | 4.3 | 0.00 | 0.00 | 0.00 | 12 | 1010.0 |
| 20260507075736 | 54 | 128 | 2.6 | 4.3 | 0.00 | 0.00 | 0.00 | 12 | 1010.0 |
| 20260507074735 | 55 | 0 | 0.0 | 0.0 | 0.00 | 0.00 | 0.00 | 12 | 1010.0 |
| 20260507073734 | 54 | 0 | 0.0 | 0.0 | 0.00 | 0.00 | 0.00 | 12 | 1010.0 |